This is the latest recevied weather packets stored in our database for station/object Dunnningn. If no packets are shown the sender has not sent any weather packets the latest 10 day(s).
| Time | Temp. | Humidity | Pressure | Rain* | Wind** | Luminosity | Snow |
|---|---|---|---|---|---|---|---|
| 1788373931 | 20.56° C | 61% | 1021.4 hPa | 0 mm | - | - | - |
| 1788372130 | 21.11° C | 57% | 1021.1 hPa | 0 mm | - | - | - |
| 1788370330 | 21.67° C | 55% | 1020.9 hPa | 0 mm | - | - | - |
| 1788368531 | 22.22° C | 54% | 1020.9 hPa | 0 mm | - | - | - |
| 1788366732 | 22.22° C | 52% | 1020.8 hPa | 0 mm | - | - | - |
| 1788364931 | 22.78° C | 50% | 1020.9 hPa | 0 mm | - | - | - |
| 1788363130 | 23.89° C | 48% | 1020.9 hPa | 0 mm | - | - | - |
| 1788361331 | 24.44° C | 44% | 1020.8 hPa | 0 mm | - | - | - |
| 1788359530 | 24.44° C | 43% | 1020.9 hPa | 0 mm | - | - | - |
| 1788357730 | 24.44° C | 41% | 1020.9 hPa | 0 mm | - | - | - |
| 1788355930 | 25.56° C | 39% | 1020.9 hPa | 0 mm | - | - | - |
| 1788354130 | 25.56° C | 44% | 1021 hPa | 0 mm | - | - | - |
| 1788352330 | 25.56° C | 41% | 1020.9 hPa | 0 mm | - | - | - |
| 1788350530 | 25.56° C | 44% | 1021.2 hPa | 0 mm | - | - | - |
| 1788348730 | 25° C | 45% | 1021.1 hPa | 0 mm | - | - | - |
| 1788346929 | 24.44° C | 46% | 1021.4 hPa | 0 mm | - | - | - |
| 1788345130 | 23.33° C | 48% | 1021.6 hPa | 0 mm | - | - | - |
| 1788343330 | 23.33° C | 53% | 1021.7 hPa | 0 mm | - | - | - |
| 1788341530 | 22.78° C | 53% | 1021.6 hPa | 0 mm | - | - | - |
| 1788339730 | 21.11° C | 58% | 1021.7 hPa | 0 mm | - | - | - |
| 1788337930 | 19.44° C | 66% | 1021.4 hPa | 0 mm | - | - | - |
| 1788336131 | 17.78° C | 71% | 1021.3 hPa | 0 mm | - | - | - |
| 1788334330 | 15° C | 77% | 1021 hPa | 0 mm | - | - | - |
| 1788332530 | 12.78° C | 84% | 1021.5 hPa | 0 mm | - | - | - |
| 1788330729 | 11.11° C | 89% | 1021.5 hPa | 0 mm | - | - | - |
* Rain since midnight (hover to see other rain measurements)
** Current wind speed in m/s (hover to see current wind gust speed)